Time;durP1;ratioP1;P1;durP2;ratioP2;P2;SDS_P1;SDS_P2;PMS_P1;PMS_P2;Temp;Humidity;BMP_temperature;BMP_pressure;BME280_temperature;BME280_humidity;BME280_pressure;Samples;Min_cycle;Max_cycle;Signal;HPM_P1;HPM_P2
2021/07/21 00:00:22;;;;;;;20.42;11.57;;;;;;;17.12;74.51;96621.72;5113488;28;20050;-72
2021/07/21 00:02:48;;;;;;;18.23;11.25;;;;;;;17.15;73.90;96621.00;5113587;28;20406;-72
2021/07/21 00:05:18;;;;;;;17.77;11.48;;;;;;;17.12;74.05;96615.41;5113455;28;20066;-73
2021/07/21 00:07:45;;;;;;;18.90;11.77;;;;;;;17.11;74.20;96614.59;5111607;28;20051;-73
2021/07/21 00:10:16;;;;;;;20.67;12.07;;;;;;;17.04;74.50;96616.38;5113839;28;20055;-73
2021/07/21 00:15:31;;;;;;;19.38;12.18;;;;;;;16.92;74.12;96617.25;5113693;28;20185;-72
2021/07/21 00:18:02;;;;;;;16.63;11.35;;;;;;;16.94;74.44;96620.44;5114100;28;20047;-73
2021/07/21 00:20:29;;;;;;;17.90;12.20;;;;;;;16.91;75.13;96616.47;5113779;28;20058;-73
2021/07/21 00:22:56;;;;;;;19.10;12.00;;;;;;;16.87;75.38;96617.53;5113859;28;20060;-72
2021/07/21 00:25:22;;;;;;;18.10;10.60;;;;;;;16.83;75.09;96619.38;5113273;28;20051;-73
2021/07/21 00:27:50;;;;;;;19.85;11.70;;;;;;;16.78;75.30;96617.69;5113708;28;20493;-73
2021/07/21 00:30:19;;;;;;;19.30;11.45;;;;;;;16.75;75.10;96623.06;5113512;28;20406;-73
2021/07/21 00:32:46;;;;;;;17.60;11.40;;;;;;;16.72;74.50;96608.09;5113468;28;20047;-72
2021/07/21 00:35:15;;;;;;;19.63;11.95;;;;;;;16.69;75.18;96619.75;5113284;28;20405;-73
2021/07/21 00:37:42;;;;;;;16.38;10.85;;;;;;;16.69;74.75;96614.25;5111793;28;20040;-72
2021/07/21 00:40:11;;;;;;;19.58;11.27;;;;;;;16.70;74.26;96615.84;5113150;28;20051;-73
2021/07/21 00:42:37;;;;;;;19.45;11.77;;;;;;;16.70;74.43;96616.66;5113493;28;20047;-72
2021/07/21 00:45:07;;;;;;;15.48;10.55;;;;;;;16.67;74.82;96611.84;5113204;28;20040;-73
2021/07/21 00:47:34;;;;;;;17.42;10.30;;;;;;;16.64;75.10;96611.75;5113197;28;20048;-74
2021/07/21 00:50:00;;;;;;;16.33;11.50;;;;;;;16.61;75.46;96612.47;5113083;28;20048;-72
2021/07/21 00:52:27;;;;;;;18.02;11.13;;;;;;;16.57;75.67;96622.56;5112641;28;20070;-74
2021/07/21 00:54:55;;;;;;;19.30;11.05;;;;;;;16.50;74.98;96616.88;5113378;28;20051;-74
2021/07/21 00:57:21;;;;;;;17.35;10.85;;;;;;;16.43;74.70;96620.19;5112525;28;20055;-74
2021/07/21 00:59:50;;;;;;;19.38;12.35;;;;;;;16.35;74.69;96610.97;5113041;28;20043;-74
2021/07/21 01:02:18;;;;;;;17.40;10.82;;;;;;;16.37;75.18;96613.34;5112346;28;20502;-74
2021/07/21 01:04:45;;;;;;;17.67;11.07;;;;;;;16.41;74.93;96622.50;5112985;28;20043;-74
2021/07/21 01:07:12;;;;;;;17.17;11.00;;;;;;;16.40;75.20;96613.47;5110839;28;20076;-74
2021/07/21 01:09:43;;;;;;;15.95;10.57;;;;;;;16.40;74.69;96618.97;5112945;28;20044;-72
2021/07/21 01:12:17;;;;;;;19.50;10.80;;;;;;;16.34;74.71;96614.84;5112475;28;20050;-72
2021/07/21 01:14:50;;;;;;;18.08;10.45;;;;;;;16.29;75.42;96612.34;5112880;28;20044;-72
2021/07/21 01:17:26;;;;;;;17.23;10.68;;;;;;;16.23;75.42;96619.22;5111464;28;20494;-72
2021/07/21 01:20:38;;;;;;;14.90;10.27;;;;;;;16.13;75.35;96612.28;5112769;28;20460;-72
2021/07/21 01:23:12;;;;;;;15.90;10.73;;;;;;;16.12;75.86;96612.63;5065346;28;20038;-72
2021/07/21 01:25:45;;;;;;;19.08;11.18;;;;;;;16.10;76.56;96614.94;5112501;28;20040;-73
2021/07/21 01:28:13;;;;;;;16.02;10.65;;;;;;;16.11;76.69;96616.53;5112457;28;20048;-74
2021/07/21 01:30:41;;;;;;;21.10;11.82;;;;;;;16.10;76.89;96618.47;5112574;28;20047;-74
2021/07/21 01:33:12;;;;;;;20.05;11.02;;;;;;;16.09;76.83;96616.88;5111980;28;20508;-72
2021/07/21 01:35:41;;;;;;;15.48;10.68;;;;;;;16.10;76.34;96612.19;5111956;28;20521;-73
2021/07/21 01:38:13;;;;;;;19.70;11.60;;;;;;;16.11;76.38;96613.78;5111958;28;20044;-73
2021/07/21 01:40:44;;;;;;;16.02;10.98;;;;;;;16.09;76.03;96603.13;5112143;28;20043;-72
2021/07/21 01:43:17;;;;;;;19.23;11.55;;;;;;;16.06;76.13;96608.50;5111827;28;20104;-72
2021/07/21 01:45:46;;;;;;;19.70;11.63;;;;;;;16.05;76.23;96612.41;5111972;28;20055;-72
2021/07/21 01:48:15;;;;;;;16.65;11.02;;;;;;;15.95;75.66;96610.16;5111659;28;20052;-74
2021/07/21 01:50:43;;;;;;;18.65;10.82;;;;;;;15.89;75.72;96610.38;5112041;28;20043;-74
2021/07/21 01:53:10;;;;;;;17.88;11.00;;;;;;;15.86;76.28;96621.25;5111559;28;20051;-74
2021/07/21 01:55:38;;;;;;;18.10;10.30;;;;;;;15.86;76.49;96613.81;5111995;28;20043;-74
2021/07/21 01:58:06;;;;;;;16.00;10.55;;;;;;;15.89;76.27;96621.38;5111381;28;20108;-74
2021/07/21 02:00:36;;;;;;;20.20;11.85;;;;;;;15.87;76.43;96615.44;5111851;28;20051;-74
2021/07/21 02:03:03;;;;;;;21.40;11.40;;;;;;;15.82;76.26;96612.13;5111425;28;20628;-74
2021/07/21 02:05:31;;;;;;;16.90;10.35;;;;;;;15.78;76.12;96613.97;5111759;28;20059;-74
2021/07/21 02:07:58;;;;;;;19.98;12.05;;;;;;;15.75;76.34;96615.44;5110717;28;20071;-74
2021/07/21 02:10:27;;;;;;;17.05;11.00;;;;;;;15.70;75.73;96610.16;5111619;28;20044;-74
2021/07/21 02:12:56;;;;;;;16.63;10.57;;;;;;;15.64;75.67;96608.81;5111756;28;20050;-74
2021/07/21 02:15:24;;;;;;;20.38;11.73;;;;;;;15.60;76.13;96607.88;5111132;28;20047;-74
2021/07/21 02:17:53;;;;;;;15.10;10.35;;;;;;;15.59;76.23;96606.25;5111683;28;20039;-74
2021/07/21 02:20:21;;;;;;;18.75;10.82;;;;;;;15.60;76.25;96607.88;5111340;28;20047;-74
2021/07/21 02:22:49;;;;;;;18.63;10.98;;;;;;;15.57;76.56;96605.81;5111872;28;20493;-74
2021/07/21 02:25:15;;;;;;;21.13;11.48;;;;;;;15.58;76.53;96604.66;5111161;28;20046;-74
2021/07/21 02:27:42;;;;;;;20.13;10.75;;;;;;;15.54;75.98;96610.03;5111512;28;20130;-74
2021/07/21 02:30:10;;;;;;;18.00;11.55;;;;;;;15.50;75.80;96600.88;5110853;28;20494;-74
2021/07/21 02:32:42;;;;;;;17.75;11.25;;;;;;;15.49;76.18;96609.47;5111362;28;20486;-74
2021/07/21 02:35:10;;;;;;;16.95;11.35;;;;;;;15.52;76.43;96612.34;5111231;28;20051;-74
2021/07/21 02:37:37;;;;;;;20.30;11.80;;;;;;;15.48;76.34;96608.66;5109693;28;20077;-74
2021/07/21 02:40:06;;;;;;;19.10;11.32;;;;;;;15.47;76.38;96614.50;5111101;28;20051;-74
2021/07/21 02:42:33;;;;;;;17.70;10.50;;;;;;;15.45;76.73;96616.78;5111762;28;20047;-74
2021/07/21 02:44:59;;;;;;;19.33;11.25;;;;;;;15.43;76.65;96614.38;5111468;28;20062;-74
2021/07/21 02:47:28;;;;;;;20.40;11.18;;;;;;;15.39;76.21;96614.25;5110910;28;20036;-74
2021/07/21 02:49:54;;;;;;;18.00;11.10;;;;;;;15.35;76.02;96618.06;5111303;28;20196;-74
2021/07/21 02:52:27;;;;;;;31.52;12.38;;;;;;;15.33;76.23;96615.63;5111170;28;20047;-74
2021/07/21 02:55:03;;;;;;;20.73;11.27;;;;;;;15.33;76.43;96612.91;5111526;28;20039;-74
2021/07/21 02:57:35;;;;;;;20.33;11.38;;;;;;;15.35;76.54;96618.84;5111178;28;20039;-74
2021/07/21 03:00:10;;;;;;;22.92;11.32;;;;;;;15.34;76.82;96611.75;5111355;28;20051;-74
2021/07/21 03:02:38;;;;;;;20.13;11.68;;;;;;;15.38;76.71;96609.94;5111120;28;20514;-74
2021/07/21 03:05:07;;;;;;;18.70;10.65;;;;;;;15.42;75.82;96612.00;5110798;28;20047;-74
2021/07/21 03:07:38;;;;;;;16.50;9.98;;;;;;;15.33;74.81;96615.63;5109793;28;20135;-74
2021/07/21 03:10:06;;;;;;;14.43;8.85;;;;;;;15.22;74.77;96613.69;5111012;28;20493;-73
2021/07/21 03:12:37;;;;;;;16.38;9.98;;;;;;;15.09;75.06;96621.91;5111285;28;20048;-74
2021/07/21 03:15:04;;;;;;;18.13;10.65;;;;;;;15.06;76.00;96627.28;5110747;28;20048;-74
2021/07/21 03:17:36;;;;;;;19.73;11.00;;;;;;;15.03;76.75;96627.94;5111167;28;20040;-74
2021/07/21 03:20:08;;;;;;;16.83;10.38;;;;;;;15.04;76.38;96624.09;5110457;28;20520;-74
2021/07/21 03:22:39;;;;;;;27.00;12.38;;;;;;;15.03;76.52;96627.94;5111229;28;20048;-73
2021/07/21 03:25:08;;;;;;;20.90;11.43;;;;;;;14.97;76.27;96629.31;5110839;28;20051;-74
2021/07/21 03:27:35;;;;;;;20.05;11.82;;;;;;;14.93;76.71;96628.38;5110767;28;20534;-74
2021/07/21 03:30:03;;;;;;;17.27;10.73;;;;;;;14.91;76.95;96627.91;5110984;28;20051;-74
2021/07/21 03:32:30;;;;;;;19.88;11.18;;;;;;;14.97;77.16;96634.78;5111003;28;20039;-73
2021/07/21 03:34:57;;;;;;;18.73;11.23;;;;;;;15.03;76.97;96638.91;5111194;28;20062;-74
2021/07/21 03:37:25;;;;;;;19.40;11.85;;;;;;;15.03;76.94;96641.66;5110113;28;20043;-74
2021/07/21 03:39:56;;;;;;;19.88;11.20;;;;;;;15.02;77.24;96640.84;5110775;28;20040;-74
2021/07/21 03:42:25;;;;;;;17.13;10.95;;;;;;;15.06;76.94;96647.25;5113336;28;20040;-74
2021/07/21 03:44:53;;;;;;;17.58;10.15;;;;;;;15.08;76.79;96646.91;5114549;28;20067;-74
2021/07/21 03:47:20;;;;;;;15.18;9.82;;;;;;;15.06;77.14;96644.53;5114190;28;20044;-74
2021/07/21 03:49:47;;;;;;;16.38;9.88;;;;;;;15.06;76.41;96643.72;5114760;28;20040;-74
2021/07/21 03:52:15;;;;;;;19.00;10.80;;;;;;;15.04;76.59;96646.03;5114366;28;20039;-74
2021/07/21 03:54:42;;;;;;;15.07;9.90;;;;;;;15.00;77.19;96645.09;5114562;28;20072;-74
2021/07/21 03:57:11;;;;;;;17.45;10.27;;;;;;;14.96;77.15;96646.91;5113768;28;20557;-74
2021/07/21 03:59:38;;;;;;;17.40;10.82;;;;;;;14.94;77.36;96651.94;5114339;28;20502;-74
2021/07/21 04:02:07;;;;;;;19.40;11.65;;;;;;;14.99;77.43;96657.22;5113798;28;20044;-74
2021/07/21 04:04:34;;;;;;;16.80;10.57;;;;;;;15.03;77.57;96660.84;5114135;28;20067;-74
2021/07/21 04:07:02;;;;;;;19.88;11.65;;;;;;;15.05;77.64;96664.06;5113774;28;20398;-74
2021/07/21 04:09:32;;;;;;;18.25;10.70;;;;;;;15.07;77.50;96664.53;5113845;28;20444;-74
2021/07/21 04:12:00;;;;;;;16.40;10.50;;;;;;;15.05;77.56;96669.56;5114098;28;20521;-74
2021/07/21 04:14:29;;;;;;;18.27;10.70;;;;;;;15.12;76.61;96667.03;5113559;28;20066;-71
2021/07/21 04:16:56;;;;;;;16.38;10.10;;;;;;;15.14;76.08;96668.31;5114041;28;20047;-74
2021/07/21 04:19:23;;;;;;;18.83;10.30;;;;;;;15.18;76.03;96673.91;5113717;28;20055;-74
2021/07/21 04:21:51;;;;;;;15.88;10.48;;;;;;;15.21;76.60;96676.00;5113822;28;20401;-74
2021/07/21 04:24:19;;;;;;;18.10;10.45;;;;;;;15.21;76.40;96676.00;5113356;28;20055;-74
2021/07/21 04:26:47;;;;;;;19.08;10.70;;;;;;;15.14;76.50;96678.50;5113810;28;20040;-74
2021/07/21 04:29:14;;;;;;;16.63;10.43;;;;;;;15.10;76.07;96677.56;5113205;28;20494;-74
2021/07/21 04:31:43;;;;;;;16.77;10.30;;;;;;;15.06;75.99;96682.13;5113906;28;20036;-74
2021/07/21 04:34:11;;;;;;;20.83;11.32;;;;;;;15.06;76.11;96676.63;5113389;28;20039;-74
2021/07/21 04:36:40;;;;;;;17.20;10.63;;;;;;;15.13;76.54;96674.94;5111560;28;20051;-74
2021/07/21 04:39:07;;;;;;;19.35;11.07;;;;;;;15.20;75.61;96673.59;5113124;28;20040;-74
2021/07/21 04:41:34;;;;;;;18.73;10.75;;;;;;;15.24;75.62;96677.25;5113723;28;20047;-74
2021/07/21 04:44:02;;;;;;;17.67;10.50;;;;;;;15.25;75.87;96671.44;5113691;28;20044;-74
2021/07/21 04:46:31;;;;;;;18.23;11.63;;;;;;;15.26;76.03;96670.28;5113186;28;20043;-74
2021/07/21 04:49:00;;;;;;;16.77;11.25;;;;;;;15.25;75.88;96671.44;5113441;28;20044;-74
2021/07/21 04:51:28;;;;;;;21.20;12.38;;;;;;;15.25;76.16;96667.88;5113003;28;20505;-74
2021/07/21 04:53:56;;;;;;;19.00;11.43;;;;;;;15.30;76.47;96671.22;5113373;28;20042;-74
2021/07/21 04:56:23;;;;;;;18.83;12.35;;;;;;;15.34;76.43;96676.81;5112570;28;20039;-73
2021/07/21 04:58:50;;;;;;;19.52;12.32;;;;;;;15.33;76.02;96673.25;5113415;28;20047;-74
2021/07/21 05:01:17;;;;;;;19.35;11.45;;;;;;;15.33;75.95;96677.94;5112756;28;20050;-72
2021/07/21 05:03:43;;;;;;;22.50;13.10;;;;;;;15.34;76.46;96672.09;5113253;28;20048;-73
2021/07/21 05:06:12;;;;;;;21.42;11.27;;;;;;;15.38;77.00;96673.03;5110779;28;20043;-72
2021/07/21 05:08:38;;;;;;;20.13;11.60;;;;;;;15.44;77.28;96683.78;5113104;28;20043;-72
2021/07/21 05:11:05;;;;;;;19.52;11.25;;;;;;;15.50;77.60;96691.44;5112662;28;20051;-72
2021/07/21 05:13:32;;;;;;;19.65;11.40;;;;;;;15.59;77.15;96677.63;5113056;28;20084;-72
2021/07/21 05:15:59;;;;;;;18.60;12.43;;;;;;;15.63;77.20;96690.38;5112747;28;20449;-72
2021/07/21 05:18:25;;;;;;;19.52;12.07;;;;;;;15.68;77.39;96692.09;5112612;28;20036;-72
2021/07/21 05:20:52;;;;;;;19.42;12.07;;;;;;;15.74;77.94;96690.72;5113202;28;20048;-72
2021/07/21 05:23:20;;;;;;;23.10;12.90;;;;;;;15.81;78.08;96696.41;5112026;28;20448;-72
2021/07/21 05:25:46;;;;;;;20.58;12.07;;;;;;;15.87;77.68;96695.06;5112480;28;20055;-72
2021/07/21 05:28:13;;;;;;;21.23;12.60;;;;;;;15.90;77.93;96696.31;5112178;28;20055;-72
2021/07/21 05:30:39;;;;;;;23.30;14.52;;;;;;;15.98;78.05;96692.66;5112612;28;20039;-72
2021/07/21 05:33:06;;;;;;;21.20;12.60;;;;;;;16.05;78.12;96695.63;5112217;28;20043;-72
2021/07/21 05:35:32;;;;;;;23.00;13.43;;;;;;;16.07;76.63;96698.00;5112065;28;20043;-72
2021/07/21 05:37:59;;;;;;;23.88;14.05;;;;;;;16.14;77.10;96703.75;5111717;28;20062;-72
2021/07/21 05:40:26;;;;;;;22.15;14.10;;;;;;;16.24;77.49;96708.78;5111952;28;20043;-72
2021/07/21 05:42:53;;;;;;;24.48;13.68;;;;;;;16.31;77.06;96703.47;5111146;28;20043;-72
2021/07/21 05:45:19;;;;;;;26.17;14.65;;;;;;;16.34;76.91;96708.31;5099853;28;20086;-72
2021/07/21 05:47:46;;;;;;;23.67;14.00;;;;;;;16.41;76.83;96708.50;5089370;28;20051;-72
2021/07/21 05:50:13;;;;;;;23.90;13.75;;;;;;;16.51;76.83;96717.41;5088902;28;20044;-72
2021/07/21 05:52:39;;;;;;;24.45;13.90;;;;;;;16.57;75.98;96710.53;5088588;28;20059;-71
2021/07/21 05:55:06;;;;;;;21.70;14.43;;;;;;;16.63;76.01;96701.69;5088666;28;20066;-71
2021/07/21 05:57:34;;;;;;;21.98;13.35;;;;;;;16.70;75.53;96703.81;5104713;28;20055;-71
2021/07/21 06:00:02;;;;;;;20.30;13.52;;;;;;;16.76;75.08;96707.16;5108520;28;20051;-72
2021/07/21 06:02:29;;;;;;;23.27;14.20;;;;;;;16.83;75.13;96708.19;5109065;28;20453;-71
2021/07/21 06:04:55;;;;;;;21.02;13.00;;;;;;;16.91;75.68;96711.91;5108305;28;20543;-71
2021/07/21 06:07:22;;;;;;;20.50;12.82;;;;;;;16.99;75.95;96715.69;5108156;28;24051;-71
2021/07/21 06:09:48;;;;;;;22.88;13.65;;;;;;;16.98;76.53;96714.88;5109297;28;20067;-72
2021/07/21 06:12:15;;;;;;;22.88;13.80;;;;;;;17.02;77.27;96715.78;5108633;28;20828;-72
2021/07/21 06:14:43;;;;;;;21.17;12.88;;;;;;;17.10;77.53;96716.78;5108882;28;20058;-72
2021/07/21 06:17:10;;;;;;;27.77;14.65;;;;;;;17.21;76.64;96724.16;5109006;28;20059;-72
2021/07/21 06:19:37;;;;;;;22.38;13.48;;;;;;;17.29;76.49;96725.16;5108426;28;20054;-75
2021/07/21 06:22:05;;;;;;;28.00;14.90;;;;;;;17.38;75.92;96727.75;5107119;28;20052;-73
2021/07/21 06:24:32;;;;;;;22.92;13.10;;;;;;;17.36;75.18;96736.34;5108481;28;20060;-74
2021/07/21 06:26:59;;;;;;;22.23;13.55;;;;;;;17.47;75.26;96734.69;5108509;28;20126;-74
2021/07/21 06:29:26;;;;;;;20.73;13.45;;;;;;;17.57;74.69;96738.88;5108443;28;20047;-74
2021/07/21 06:31:55;;;;;;;24.98;13.85;;;;;;;17.68;74.70;96736.41;5107326;28;20387;-74
2021/07/21 06:34:22;;;;;;;21.85;12.98;;;;;;;17.71;74.58;96742.00;5108182;28;20051;-73
2021/07/21 06:36:48;;;;;;;21.38;13.52;;;;;;;17.79;74.60;96742.19;5107087;28;20044;-73
2021/07/21 06:39:15;;;;;;;23.95;13.90;;;;;;;17.78;74.09;96746.91;5108176;28;20056;-73
2021/07/21 06:41:41;;;;;;;22.60;13.35;;;;;;;17.89;74.23;96747.97;5108747;28;20494;-73
2021/07/21 06:44:08;;;;;;;23.92;13.25;;;;;;;17.95;74.24;96749.31;5107927;28;20047;-74
2021/07/21 06:46:34;;;;;;;25.30;13.90;;;;;;;18.09;73.25;96751.63;5108391;28;20528;-74
2021/07/21 06:49:02;;;;;;;22.50;13.45;;;;;;;18.21;72.33;96748.75;5108575;28;20706;-74
2021/07/21 06:51:29;;;;;;;21.73;13.15;;;;;;;18.24;72.24;96747.25;5108383;28;20048;-75
2021/07/21 06:53:55;;;;;;;20.52;12.82;;;;;;;18.31;72.53;96763.16;5108332;28;20048;-73
2021/07/21 06:56:22;;;;;;;23.52;13.90;;;;;;;18.47;71.50;96750.94;5108037;28;20051;-74
2021/07/21 06:58:50;;;;;;;19.95;12.13;;;;;;;18.59;71.85;96749.22;5108505;28;20131;-74
2021/07/21 07:01:16;;;;;;;19.90;12.60;;;;;;;18.71;70.84;96754.63;5107748;28;20047;-74
2021/07/21 07:03:43;;;;;;;21.08;12.57;;;;;;;18.80;69.05;96763.53;5108235;28;20050;-74
2021/07/21 07:06:11;;;;;;;22.20;12.57;;;;;;;18.88;68.78;96759.72;5106333;28;20099;-72
2021/07/21 07:08:37;;;;;;;25.50;13.05;;;;;;;18.94;69.22;96761.03;5108472;28;20039;-73
2021/07/21 07:11:04;;;;;;;23.02;13.35;;;;;;;19.07;69.09;96767.22;5108136;28;20055;-74
2021/07/21 07:13:30;;;;;;;21.00;13.05;;;;;;;19.18;69.04;96772.97;5108049;28;20518;-73
2021/07/21 07:15:57;;;;;;;21.30;13.40;;;;;;;19.24;68.50;96774.28;5108605;28;20052;-73
2021/07/21 07:18:23;;;;;;;17.73;12.23;;;;;;;19.35;67.09;96771.72;5112099;28;20530;-73
2021/07/21 07:20:52;;;;;;;23.52;13.00;;;;;;;19.45;66.91;96771.13;5112168;28;20048;-73
2021/07/21 07:23:20;;;;;;;20.05;12.80;;;;;;;19.55;67.15;96781.59;5111320;28;20047;-73
2021/07/21 07:25:46;;;;;;;22.65;13.60;;;;;;;19.60;66.68;96775.00;5111987;28;20055;-74
2021/07/21 07:28:13;;;;;;;21.95;13.15;;;;;;;19.65;67.01;96780.22;5111651;28;20051;-75
2021/07/21 07:30:39;;;;;;;20.80;12.35;;;;;;;19.82;68.11;96782.50;5112204;28;20050;-75
2021/07/21 07:33:06;;;;;;;23.35;12.52;;;;;;;19.91;67.85;96777.53;5111278;28;20521;-74
2021/07/21 07:35:34;;;;;;;17.55;11.57;;;;;;;20.04;65.74;96770.63;5111782;28;20797;-74
2021/07/21 07:38:01;;;;;;;20.83;11.93;;;;;;;20.19;66.24;96779.97;5111524;28;20050;-74
2021/07/21 07:40:29;;;;;;;18.20;12.05;;;;;;;20.30;65.38;96780.94;5111572;28;20048;-74
2021/07/21 07:42:55;;;;;;;25.10;12.77;;;;;;;20.40;65.55;96779.50;5111324;28;20055;-75
2021/07/21 07:45:21;;;;;;;17.95;12.00;;;;;;;20.47;65.91;96776.91;5111178;28;20043;-73
2021/07/21 07:47:48;;;;;;;19.15;11.73;;;;;;;20.65;66.95;96765.28;5111594;28;20050;-73
2021/07/21 07:50:15;;;;;;;20.77;11.40;;;;;;;20.80;63.94;96758.78;5111041;28;20051;-74
2021/07/21 07:52:41;;;;;;;17.38;10.52;;;;;;;20.90;63.19;96758.13;5112492;28;20066;-72
2021/07/21 07:55:09;;;;;;;20.52;10.50;;;;;;;21.06;65.22;96758.72;5113744;28;20040;-72
2021/07/21 07:57:37;;;;;;;19.88;11.48;;;;;;;21.20;63.69;96758.13;5114308;28;20605;-73
2021/07/21 08:00:06;;;;;;;19.52;11.85;;;;;;;21.23;61.36;96762.09;5113997;28;20051;-73
2021/07/21 08:02:33;;;;;;;19.83;10.95;;;;;;;21.30;62.60;96768.56;5114504;28;20039;-73
2021/07/21 08:04:59;;;;;;;16.60;11.23;;;;;;;21.43;61.53;96766.31;5114091;28;20059;-74
2021/07/21 08:07:29;;;;;;;18.35;11.50;;;;;;;21.60;64.89;96762.13;5112045;28;20117;-73
2021/07/21 08:09:56;;;;;;;17.88;10.63;;;;;;;21.84;60.92;96764.38;5113999;28;20739;-73
2021/07/21 08:12:22;;;;;;;16.90;9.73;;;;;;;22.56;56.43;96765.78;5113866;28;20051;-73
2021/07/21 08:14:50;;;;;;;16.17;9.15;;;;;;;23.92;52.36;96766.41;5114098;28;20040;-73
2021/07/21 08:17:17;;;;;;;16.65;9.18;;;;;;;25.11;48.32;96767.91;5113466;28;20050;-73
2021/07/21 08:19:44;;;;;;;15.65;9.18;;;;;;;26.34;46.51;96752.88;5113675;28;20043;-72
2021/07/21 08:22:10;;;;;;;17.75;8.55;;;;;;;27.30;41.78;96763.94;5113413;28;20558;-73
2021/07/21 08:24:37;;;;;;;15.52;8.98;;;;;;;27.99;38.62;96758.22;5113709;28;20497;-73
2021/07/21 08:27:04;;;;;;;14.73;8.85;;;;;;;28.73;38.21;96766.63;5112566;28;20122;-73
2021/07/21 08:29:31;;;;;;;16.40;9.18;;;;;;;29.18;38.42;96769.78;5113043;28;20067;-73
2021/07/21 08:31:58;;;;;;;13.23;8.60;;;;;;;29.85;36.92;96762.00;5113523;28;20448;-73
2021/07/21 08:34:25;;;;;;;11.98;7.82;;;;;;;30.40;34.77;96765.16;5113104;28;20043;-73
2021/07/21 08:36:51;;;;;;;15.93;8.73;;;;;;;30.96;32.16;96758.53;5111871;28;20048;-73
2021/07/21 08:39:18;;;;;;;14.32;8.38;;;;;;;30.68;31.52;96767.25;5113024;28;20490;-74
2021/07/21 08:41:45;;;;;;;11.82;8.30;;;;;;;31.16;31.67;96767.59;5113125;28;20074;-74
2021/07/21 08:44:14;;;;;;;13.85;7.90;;;;;;;31.38;31.55;96760.19;5113150;28;20409;-73
2021/07/21 08:46:40;;;;;;;15.25;8.77;;;;;;;31.53;29.53;96759.75;5092529;28;20497;-73
2021/07/21 08:49:08;;;;;;;13.55;8.45;;;;;;;31.72;29.72;96758.78;5092619;28;20066;-73
2021/07/21 08:51:36;;;;;;;11.43;7.50;;;;;;;32.10;30.37;96764.47;5092923;28;20055;-73
2021/07/21 08:54:03;;;;;;;10.40;7.32;;;;;;;32.30;30.36;96761.41;5091837;28;20051;-73
2021/07/21 08:56:30;;;;;;;11.18;7.75;;;;;;;32.52;29.07;96760.75;5092517;28;20044;-74
2021/07/21 08:58:56;;;;;;;13.45;7.93;;;;;;;32.48;32.05;96755.25;5092075;28;20048;-74
2021/07/21 09:01:24;;;;;;;18.58;9.25;;;;;;;32.63;30.49;96758.38;5091608;28;20050;-74
2021/07/21 09:03:51;;;;;;;15.95;8.55;;;;;;;32.90;30.40;96761.47;5090451;28;20044;-74
2021/07/21 09:06:19;;;;;;;19.77;8.60;;;;;;;32.97;27.68;96766.84;5097126;28;20602;-74
2021/07/21 09:08:46;;;;;;;13.88;8.18;;;;;;;33.08;29.19;96765.69;5111311;28;20094;-75
2021/07/21 09:11:12;;;;;;;13.77;7.60;;;;;;;33.04;31.20;96767.84;5110800;28;20043;-74
2021/07/21 09:13:40;;;;;;;14.20;7.82;;;;;;;33.32;28.02;96771.69;5111984;28;20040;-76
2021/07/21 09:16:07;;;;;;;14.93;8.27;;;;;;;33.52;28.63;96762.91;5111270;28;20055;-74
2021/07/21 09:18:47;;;;;;;15.75;7.78;;;;;;;33.62;27.58;96764.53;5112700;28;20046;-75
2021/07/21 09:21:16;;;;;;;14.50;8.32;;;;;;;33.54;26.85;96766.84;5112062;28;20502;-76
2021/07/21 09:23:46;;;;;;;11.70;7.75;;;;;;;33.77;29.62;96765.56;5112528;28;20039;-76
2021/07/21 09:26:18;;;;;;;13.40;8.77;;;;;;;33.91;27.42;96765.03;5111732;28;20051;-76
2021/07/21 09:28:45;;;;;;;13.48;8.15;;;;;;;34.06;27.63;96768.13;5109834;28;20055;-76
2021/07/21 09:31:14;;;;;;;13.90;8.30;;;;;;;34.12;25.90;96763.41;5100362;28;20055;-76
2021/07/21 09:33:43;;;;;;;12.25;7.78;;;;;;;33.84;25.82;96759.66;5109412;28;20059;-75
2021/07/21 09:36:18;;;;;;;14.10;8.73;;;;;;;33.52;27.31;96754.44;5106825;28;20134;-73
2021/07/21 09:38:46;;;;;;;14.02;8.10;;;;;;;33.20;27.53;96764.84;5108272;28;20128;-74
2021/07/21 09:41:15;;;;;;;15.40;8.25;;;;;;;32.54;27.67;96752.63;5108318;28;20409;-73
2021/07/21 09:43:41;;;;;;;12.93;8.00;;;;;;;31.98;26.46;96758.84;5108901;28;20048;-73
2021/07/21 09:46:10;;;;;;;12.93;7.82;;;;;;;31.54;30.11;96758.53;5108769;28;20124;-73
2021/07/21 09:48:37;;;;;;;14.52;8.88;;;;;;;30.99;31.99;96752.03;5109002;28;20055;-74
2021/07/21 09:51:04;;;;;;;12.95;8.93;;;;;;;30.27;31.34;96759.44;5108199;28;20096;-74
2021/07/21 09:53:38;;;;;;;13.27;8.32;;;;;;;29.91;33.82;96751.03;5108693;28;20072;-73
2021/07/21 09:56:06;;;;;;;14.80;8.75;;;;;;;29.50;32.70;96760.75;5108439;28;20055;-72
2021/07/21 09:58:35;;;;;;;18.67;9.30;;;;;;;29.08;37.91;96754.00;5108895;28;20051;-73
2021/07/21 10:01:02;;;;;;;16.88;9.57;;;;;;;28.89;35.12;96754.72;5108554;28;20078;-74
2021/07/21 10:03:32;;;;;;;15.10;8.82;;;;;;;28.66;35.44;96747.13;5108367;28;20052;-73
2021/07/21 10:06:04;;;;;;;20.20;9.88;;;;;;;28.47;36.54;96754.28;5106753;28;20441;-73
2021/07/21 10:08:38;;;;;;;17.63;8.63;;;;;;;28.41;35.08;96747.59;5108584;28;20055;-73
2021/07/21 10:11:23;;;;;;;17.85;9.30;;;;;;;28.41;37.54;96750.38;5108237;28;20516;-73
2021/07/21 10:13:51;;;;;;;15.80;9.15;;;;;;;28.38;40.05;96748.44;5108627;28;20043;-73
2021/07/21 10:16:36;;;;;;;17.63;9.60;;;;;;;28.31;36.25;96750.09;5107933;28;20498;-72
2021/07/21 10:19:05;;;;;;;16.15;9.05;;;;;;;28.05;36.21;96751.72;5108034;28;20047;-72
2021/07/21 10:21:31;;;;;;;15.20;8.80;;;;;;;27.99;35.38;96749.81;5108162;28;20048;-73
2021/07/21 10:23:58;;;;;;;17.15;8.63;;;;;;;28.01;37.86;96739.78;5108463;28;20164;-73
2021/07/21 10:26:27;;;;;;;16.58;9.30;;;;;;;28.00;34.39;96740.22;5107974;28;20044;-73
2021/07/21 10:28:55;;;;;;;22.15;10.18;;;;;;;27.94;41.05;96739.09;5108521;28;20047;-73
2021/07/21 10:31:22;;;;;;;22.73;9.77;;;;;;;27.94;35.75;96744.72;5107357;28;22730;-73
2021/07/21 10:33:48;;;;;;;17.38;9.80;;;;;;;27.71;39.36;96732.22;5090022;28;20122;-73
2021/07/21 10:36:15;;;;;;;21.30;10.23;;;;;;;27.73;37.65;96737.41;5107324;28;20062;-74
2021/07/21 10:38:42;;;;;;;16.85;8.75;;;;;;;27.81;40.87;96741.69;5108252;28;20040;-74
2021/07/21 10:41:08;;;;;;;17.90;9.65;;;;;;;27.90;37.01;96743.97;5107536;28;20055;-73
2021/07/21 10:43:37;;;;;;;20.45;9.18;;;;;;;27.86;34.81;96743.22;5108344;28;20051;-73
2021/07/21 10:46:04;;;;;;;16.38;9.25;;;;;;;27.55;37.49;96735.63;5107737;28;20047;-73
2021/07/21 10:48:44;;;;;;;18.95;9.25;;;;;;;27.46;38.50;96737.34;5108064;28;20048;-73
2021/07/21 10:51:30;;;;;;;15.68;8.68;;;;;;;27.53;40.29;96731.66;5110192;28;20058;-73
2021/07/21 10:59:24;;;;;;;15.52;8.88;;;;;;;27.46;37.42;96731.75;5111836;28;20477;-73
2021/07/21 11:01:52;;;;;;;19.40;9.40;;;;;;;27.52;35.58;96724.50;5111839;28;20043;-75
2021/07/21 11:04:22;;;;;;;20.30;9.60;;;;;;;27.44;34.43;96734.19;5111911;28;20051;-73
2021/07/21 11:06:49;;;;;;;23.25;9.60;;;;;;;27.27;34.56;96731.19;5111728;28;20789;-75
2021/07/21 11:09:22;;;;;;;20.35;9.48;;;;;;;27.23;38.69;96724.84;5111554;28;20057;-74
2021/07/21 11:11:54;;;;;;;21.05;10.05;;;;;;;27.19;35.76;96729.69;5111761;28;20047;-73
2021/07/21 11:14:24;;;;;;;17.80;8.85;;;;;;;27.15;37.35;96726.16;5111430;28;20051;-75
2021/07/21 11:16:53;;;;;;;20.40;9.70;;;;;;;27.27;36.61;96730.41;5111826;28;20055;-75
2021/07/21 11:19:27;;;;;;;16.48;9.32;;;;;;;27.40;36.91;96725.03;5111497;28;20101;-75
2021/07/21 11:21:55;;;;;;;19.23;9.18;;;;;;;27.47;37.61;96722.16;5111514;28;20051;-75
2021/07/21 11:24:22;;;;;;;16.08;8.48;;;;;;;27.47;39.11;96720.16;5111686;28;20155;-75
2021/07/21 11:26:51;;;;;;;17.70;9.40;;;;;;;27.56;35.57;96719.63;5111776;28;20040;-74
2021/07/21 11:29:47;;;;;;;16.85;9.07;;;;;;;27.54;39.52;96719.25;5110989;28;20067;-74
2021/07/21 11:32:26;;;;;;;17.73;8.85;;;;;;;27.60;38.89;96723.16;5110779;28;20047;-73